createdAt,value
2023-06-04T00:02:13.834Z,11.32
2023-06-04T00:04:41.454Z,11.24
2023-06-04T00:07:08.905Z,11.31
2023-06-04T00:09:36.560Z,11.43
2023-06-04T00:12:04.120Z,11.33
2023-06-04T00:14:31.899Z,11.29
2023-06-04T00:16:59.170Z,11.13
2023-06-04T00:19:26.737Z,10.96
2023-06-04T00:21:54.107Z,10.92
2023-06-04T00:24:21.665Z,11.12
2023-06-04T00:26:48.937Z,10.99
2023-06-04T00:29:16.610Z,11.26
2023-06-04T00:31:43.955Z,11.18
2023-06-04T00:34:12.656Z,11.12
2023-06-04T00:36:41.712Z,11.20
2023-06-04T00:39:10.381Z,11.17
2023-06-04T00:41:37.874Z,11.26
2023-06-04T00:44:07.782Z,11.43
2023-06-04T00:46:37.133Z,11.39
2023-06-04T00:49:07.176Z,11.41
2023-06-04T00:51:34.798Z,11.35
2023-06-04T00:54:09.818Z,11.25
2023-06-04T00:56:38.493Z,11.22
2023-06-04T00:59:08.180Z,11.26
2023-06-04T01:01:48.288Z,11.25
2023-06-04T01:04:27.187Z,11.23
2023-06-04T01:06:58.914Z,11.27
2023-06-04T01:09:30.014Z,11.39
2023-06-04T01:12:00.346Z,11.37
2023-06-04T01:14:28.035Z,11.03
2023-06-04T01:17:18.353Z,11.16
2023-06-04T01:20:05.640Z,11.04
2023-06-04T01:22:43.150Z,11.06
2023-06-04T01:25:20.760Z,10.99
2023-06-04T01:27:51.387Z,11.03
2023-06-04T01:30:25.480Z,11.05
2023-06-04T01:32:55.311Z,11.04
2023-06-04T01:35:26.008Z,10.97
2023-06-04T01:37:55.636Z,11.06
2023-06-04T01:40:24.458Z,11.07
2023-06-04T01:42:51.909Z,11.21
2023-06-04T01:45:19.592Z,11.19
2023-06-04T01:47:46.939Z,11.13
2023-06-04T01:50:14.679Z,11.08
2023-06-04T01:52:42.538Z,11.16
2023-06-04T01:55:13.359Z,11.25
2023-06-04T01:57:41.747Z,11.17
2023-06-04T02:00:11.575Z,11.14
2023-06-04T02:02:44.627Z,11.12
2023-06-04T02:05:13.221Z,11.04
2023-06-04T02:07:46.025Z,11.01
2023-06-04T02:10:16.151Z,10.97
2023-06-04T02:12:57.303Z,10.94
2023-06-04T02:15:26.421Z,10.95
2023-06-04T02:17:56.626Z,10.93
2023-06-04T02:20:24.294Z,11.02
2023-06-04T02:22:51.585Z,10.86
2023-06-04T02:25:19.636Z,10.97
2023-06-04T02:27:47.155Z,11.07
2023-06-04T02:30:14.977Z,11.12
2023-06-04T02:32:42.381Z,11.17
2023-06-04T02:35:10.385Z,11.28
2023-06-04T02:37:38.315Z,11.25
2023-06-04T02:40:06.598Z,11.35
2023-06-04T02:42:34.105Z,11.36
2023-06-04T02:45:01.764Z,11.39
2023-06-04T02:47:29.472Z,11.48
2023-06-04T02:49:57.114Z,11.45
2023-06-04T02:52:26.412Z,11.59
2023-06-04T02:54:54.135Z,11.54
2023-06-04T02:57:21.362Z,11.60
2023-06-04T02:59:48.972Z,11.55
2023-06-04T03:02:16.358Z,11.59
2023-06-04T03:04:45.400Z,11.63
2023-06-04T03:07:12.718Z,11.61
2023-06-04T03:09:40.264Z,11.60
2023-06-04T03:12:07.807Z,11.54
2023-06-04T03:14:35.348Z,12.04
2023-06-04T03:17:08.685Z,12.31
2023-06-04T03:19:37.547Z,12.46
2023-06-04T03:22:09.146Z,12.89
2023-06-04T03:24:39.995Z,14.46
2023-06-04T03:27:09.141Z,15.80
2023-06-04T03:29:36.850Z,16.91
2023-06-04T03:32:06.016Z,17.81
2023-06-04T03:34:35.776Z,19.07
2023-06-04T03:37:04.067Z,19.92
2023-06-04T03:39:33.301Z,19.98
2023-06-04T03:42:02.642Z,20.86
2023-06-04T03:44:30.918Z,22.19
2023-06-04T03:46:58.893Z,22.52
2023-06-04T03:49:27.195Z,23.91
2023-06-04T03:51:55.209Z,21.61
2023-06-04T03:54:23.571Z,21.88
2023-06-04T03:56:52.157Z,19.72
2023-06-04T03:59:19.813Z,17.47
2023-06-04T04:01:47.921Z,17.12
2023-06-04T04:04:16.296Z,16.93
2023-06-04T04:06:43.609Z,15.94
2023-06-04T04:09:12.765Z,15.92
2023-06-04T04:11:40.231Z,16.76
2023-06-04T04:14:08.251Z,16.60
2023-06-04T04:16:35.974Z,16.68
2023-06-04T04:19:04.095Z,17.14
2023-06-04T04:21:31.410Z,19.22
2023-06-04T04:23:59.066Z,21.30
2023-06-04T04:26:28.994Z,21.33
2023-06-04T04:29:01.193Z,21.10
2023-06-04T04:31:31.893Z,20.43
2023-06-04T04:34:01.678Z,19.65
2023-06-04T04:36:29.200Z,19.26
2023-06-04T04:38:59.543Z,18.06
2023-06-04T04:41:33.455Z,18.08
2023-06-04T04:44:06.342Z,17.72
2023-06-04T04:46:34.377Z,17.56
2023-06-04T04:49:02.048Z,17.82
2023-06-04T04:51:29.847Z,17.63
2023-06-04T04:54:01.602Z,16.73
2023-06-04T04:56:30.957Z,16.74
2023-06-04T04:58:58.588Z,17.67
2023-06-04T05:01:26.878Z,18.07
2023-06-04T05:03:55.418Z,17.97
2023-06-04T05:06:23.580Z,18.40
2023-06-04T05:08:51.801Z,18.64
2023-06-04T05:11:19.737Z,18.79
2023-06-04T05:13:48.822Z,19.63
2023-06-04T05:16:16.290Z,20.33
2023-06-04T05:18:46.090Z,21.48
2023-06-04T05:21:19.153Z,22.85
2023-06-04T05:23:56.598Z,23.49
2023-06-04T05:26:28.794Z,25.17
2023-06-04T05:28:59.747Z,27.42
2023-06-04T05:31:30.116Z,30.34
2023-06-04T05:34:05.568Z,32.36
2023-06-04T05:36:35.600Z,32.87
2023-06-04T05:39:05.882Z,33.23
2023-06-04T05:41:45.902Z,35.79
2023-06-04T05:44:14.239Z,34.81
2023-06-04T05:46:41.761Z,35.55
2023-06-04T05:49:10.450Z,35.59
2023-06-04T05:51:37.965Z,37.94
2023-06-04T05:54:06.001Z,38.61
2023-06-04T05:56:36.856Z,38.28
2023-06-04T05:59:04.726Z,37.94
2023-06-04T06:01:31.995Z,38.48
2023-06-04T06:03:59.743Z,39.65
2023-06-04T06:06:29.784Z,39.20
2023-06-04T06:08:57.643Z,37.62
2023-06-04T06:11:24.960Z,39.13
2023-06-04T06:13:53.573Z,38.52
2023-06-04T06:16:21.088Z,40.61
2023-06-04T06:18:48.854Z,-146.14
2023-06-04T06:21:16.502Z,-146.14
2023-06-04T06:23:44.375Z,-146.14
2023-06-04T06:26:12.893Z,-146.14
2023-06-04T06:28:46.465Z,-146.14
2023-06-04T06:31:14.662Z,-146.14
2023-06-04T06:33:42.487Z,-146.14
2023-06-04T06:36:13.338Z,-146.14
2023-06-04T06:38:41.420Z,-146.14
2023-06-04T06:41:09.330Z,-146.14
2023-06-04T06:43:37.346Z,-146.14
2023-06-04T06:46:04.676Z,-146.14
2023-06-04T06:48:32.569Z,-146.14
2023-06-04T06:50:59.884Z,-146.14
2023-06-04T06:53:27.417Z,-146.14
2023-06-04T06:55:54.759Z,-146.14
2023-06-04T06:58:23.224Z,-146.14
2023-06-04T07:00:50.913Z,-146.14
2023-06-04T07:03:18.573Z,-146.14
2023-06-04T07:05:45.957Z,-146.14
2023-06-04T07:08:13.540Z,-146.14
2023-06-04T07:10:41.308Z,-146.14
2023-06-04T07:13:09.031Z,-146.14
2023-06-04T07:15:36.577Z,-146.14
2023-06-04T07:18:04.279Z,-146.14
2023-06-04T07:20:31.999Z,-146.14
2023-06-04T07:22:59.648Z,-146.14
2023-06-04T07:25:26.994Z,-146.14
2023-06-04T07:27:59.288Z,-146.14
2023-06-04T07:30:27.179Z,-146.14
2023-06-04T07:32:54.965Z,-146.14
2023-06-04T07:35:22.286Z,-146.14
2023-06-04T07:37:51.074Z,-146.14
2023-06-04T07:40:19.241Z,-146.14
2023-06-04T07:42:50.681Z,-146.14
2023-06-04T07:45:18.116Z,-146.14
2023-06-04T07:47:45.884Z,35.60
2023-06-04T07:50:13.604Z,35.29
2023-06-04T07:52:41.390Z,33.89
2023-06-04T07:55:09.728Z,33.04
2023-06-04T07:57:37.492Z,32.77
2023-06-04T08:00:06.669Z,32.58
2023-06-04T08:02:40.237Z,31.49
2023-06-04T08:05:08.041Z,31.61
2023-06-04T08:07:35.773Z,29.19
2023-06-04T08:10:03.320Z,29.48
2023-06-04T08:12:30.989Z,31.30
2023-06-04T08:14:58.998Z,31.90
2023-06-04T08:17:26.712Z,31.13
2023-06-04T08:19:57.344Z,30.00
2023-06-04T08:22:38.032Z,28.89
2023-06-04T08:25:06.572Z,30.78
2023-06-04T08:27:54.305Z,33.12
2023-06-04T08:30:42.152Z,33.84
2023-06-04T08:33:29.721Z,30.49
2023-06-04T08:35:58.971Z,31.80
2023-06-04T08:38:26.719Z,32.76
2023-06-04T08:40:55.401Z,29.70
2023-06-04T08:43:23.492Z,31.86
2023-06-04T08:45:54.209Z,31.54
2023-06-04T08:48:23.249Z,31.43
2023-06-04T08:50:52.253Z,33.03
2023-06-04T08:53:20.129Z,32.21
2023-06-04T08:55:51.113Z,32.15
2023-06-04T08:58:20.511Z,32.48
2023-06-04T09:00:47.970Z,33.42
2023-06-04T09:03:18.362Z,31.22
2023-06-04T09:05:49.118Z,31.47
2023-06-04T09:08:19.070Z,31.88
2023-06-04T09:10:52.866Z,32.23
2023-06-04T09:13:23.895Z,28.37
2023-06-04T09:16:02.236Z,26.55
2023-06-04T09:18:30.743Z,27.20
2023-06-04T09:21:09.875Z,26.05
2023-06-04T09:23:48.519Z,26.24
2023-06-04T09:26:16.569Z,24.60
2023-06-04T09:28:45.982Z,27.75
2023-06-04T09:31:17.484Z,29.50
2023-06-04T09:33:51.014Z,30.13
2023-06-04T09:36:18.601Z,29.92
2023-06-04T09:38:47.130Z,29.55
2023-06-04T09:41:18.051Z,30.24
2023-06-04T09:43:45.789Z,30.20
2023-06-04T09:46:15.108Z,28.26
2023-06-04T09:48:44.137Z,28.13
2023-06-04T09:51:21.135Z,29.05
2023-06-04T09:53:59.200Z,25.50
2023-06-04T09:56:30.880Z,25.80
2023-06-04T09:59:03.198Z,26.25
2023-06-04T10:01:31.661Z,25.69
2023-06-04T10:04:04.768Z,26.36
2023-06-04T10:06:35.477Z,26.96
2023-06-04T10:09:08.861Z,26.84
2023-06-04T10:11:42.470Z,28.20
2023-06-04T10:14:23.794Z,25.21
2023-06-04T10:16:52.396Z,26.59
2023-06-04T10:19:20.959Z,26.89
2023-06-04T10:21:49.422Z,26.15
2023-06-04T10:24:17.462Z,26.74
2023-06-04T10:26:45.251Z,26.98
2023-06-04T10:29:15.611Z,26.47
2023-06-04T10:31:44.283Z,24.04
2023-06-04T10:34:13.281Z,22.07
2023-06-04T10:36:45.715Z,22.79
2023-06-04T10:39:14.317Z,22.93
2023-06-04T10:41:41.913Z,23.70
2023-06-04T10:44:10.055Z,23.01
2023-06-04T10:46:44.528Z,23.09
2023-06-04T10:49:13.291Z,22.65
2023-06-04T10:51:42.011Z,23.38
2023-06-04T10:54:09.760Z,22.85
2023-06-04T10:56:37.904Z,23.18
2023-06-04T10:59:17.171Z,23.93
2023-06-04T11:01:45.455Z,22.81
2023-06-04T11:04:24.036Z,23.19
2023-06-04T11:07:11.442Z,22.06
2023-06-04T11:09:48.963Z,21.62
2023-06-04T11:12:16.426Z,21.37
2023-06-04T11:15:00.864Z,20.49
2023-06-04T11:17:28.409Z,20.57
2023-06-04T11:19:57.011Z,19.40
2023-06-04T11:22:24.977Z,19.94
2023-06-04T11:25:01.106Z,20.77
2023-06-04T11:30:04.228Z,20.15
2023-06-04T11:32:31.796Z,19.91
2023-06-04T11:35:07.743Z,20.05
2023-06-04T11:37:36.455Z,19.92
2023-06-04T11:40:08.078Z,19.17
2023-06-04T11:42:37.312Z,19.04
2023-06-04T11:45:05.490Z,19.77
2023-06-04T11:47:32.786Z,20.09
2023-06-04T11:50:00.842Z,19.61
2023-06-04T11:52:29.041Z,19.23
2023-06-04T11:54:56.873Z,19.21
2023-06-04T11:57:24.386Z,18.84
2023-06-04T11:59:52.330Z,19.11
2023-06-04T12:02:22.542Z,19.25
2023-06-04T12:04:51.752Z,19.43
2023-06-04T12:07:25.443Z,19.66
2023-06-04T12:09:53.338Z,18.71
2023-06-04T12:12:26.464Z,18.45
2023-06-04T12:14:59.225Z,18.45
2023-06-04T12:17:26.694Z,18.51
2023-06-04T12:19:54.335Z,18.57
2023-06-04T12:22:22.056Z,18.38
2023-06-04T12:24:57.330Z,18.48
2023-06-04T12:27:28.977Z,18.59
2023-06-04T12:30:02.274Z,18.46
2023-06-04T12:32:31.597Z,18.81
2023-06-04T12:34:59.304Z,18.64
2023-06-04T12:37:27.045Z,18.30
2023-06-04T12:39:55.904Z,18.52
2023-06-04T12:42:24.723Z,18.10
2023-06-04T12:44:52.397Z,18.28
2023-06-04T12:47:19.999Z,18.28
2023-06-04T12:49:47.707Z,18.24
2023-06-04T12:52:15.533Z,18.04
2023-06-04T12:54:44.078Z,18.37
2023-06-04T12:57:11.572Z,18.44
2023-06-04T12:59:39.242Z,18.56
2023-06-04T13:02:06.945Z,18.27
2023-06-04T13:04:34.561Z,18.23
2023-06-04T13:07:01.901Z,18.23
2023-06-04T13:09:29.930Z,18.07
2023-06-04T13:11:57.564Z,18.43
2023-06-04T13:14:25.158Z,17.94
2023-06-04T13:16:53.078Z,17.96
2023-06-04T13:19:21.980Z,17.94
2023-06-04T13:21:49.398Z,18.38
2023-06-04T13:24:17.065Z,18.54
2023-06-04T13:26:44.533Z,18.39
2023-06-04T13:29:12.215Z,18.30
2023-06-04T13:31:41.367Z,17.96
2023-06-04T13:34:25.723Z,17.80
2023-06-04T13:36:56.189Z,18.01
2023-06-04T13:39:23.952Z,18.00
2023-06-04T13:41:51.261Z,16.95
2023-06-04T13:44:18.885Z,17.52
2023-06-04T13:46:46.460Z,17.78
2023-06-04T13:49:14.060Z,17.36
2023-06-04T13:51:41.962Z,17.48
2023-06-04T13:54:11.825Z,17.84
2023-06-04T13:56:40.704Z,17.62
2023-06-04T13:59:08.324Z,17.59
2023-06-04T14:01:36.117Z,17.66
2023-06-04T14:04:07.528Z,17.53
2023-06-04T14:06:37.271Z,17.62
2023-06-04T14:09:08.208Z,17.75
2023-06-04T14:11:35.667Z,17.89
2023-06-04T14:14:03.329Z,18.19
2023-06-04T14:16:30.690Z,17.95
2023-06-04T14:18:58.529Z,18.09
2023-06-04T14:21:27.989Z,17.80
2023-06-04T14:23:55.866Z,17.93
2023-06-04T14:26:23.578Z,17.29
2023-06-04T14:28:51.470Z,17.44
2023-06-04T14:31:18.876Z,17.57
2023-06-04T14:33:46.519Z,17.79
2023-06-04T14:36:13.843Z,17.55
2023-06-04T14:38:41.762Z,17.41
2023-06-04T14:41:09.789Z,17.32
2023-06-04T14:43:37.980Z,17.53
2023-06-04T14:46:05.676Z,17.25
2023-06-04T14:48:33.552Z,16.98
2023-06-04T14:51:01.097Z,16.98
2023-06-04T14:53:28.822Z,17.40
2023-06-04T14:55:56.334Z,17.50
2023-06-04T14:58:24.009Z,17.39
2023-06-04T15:00:51.428Z,17.24
2023-06-04T15:03:19.156Z,17.46
2023-06-04T15:05:46.479Z,17.61
2023-06-04T15:08:14.200Z,17.67
2023-06-04T15:10:41.712Z,17.96
2023-06-04T15:13:09.294Z,18.09
2023-06-04T15:15:36.596Z,17.90
2023-06-04T15:18:04.481Z,17.66
2023-06-04T15:20:32.324Z,17.49
2023-06-04T15:22:59.962Z,17.71
2023-06-04T15:25:29.705Z,17.48
2023-06-04T15:28:00.149Z,17.39
2023-06-04T15:30:27.803Z,17.56
2023-06-04T15:32:55.982Z,17.57
2023-06-04T15:35:23.288Z,17.61
2023-06-04T15:37:50.820Z,17.53
2023-06-04T15:40:18.223Z,17.36
2023-06-04T15:42:45.795Z,17.06
2023-06-04T15:45:13.163Z,17.04
2023-06-04T15:47:40.962Z,17.10
2023-06-04T15:50:08.900Z,16.94
2023-06-04T15:52:36.516Z,17.06
2023-06-04T15:55:04.063Z,17.04
2023-06-04T15:57:31.796Z,16.93
2023-06-04T15:59:59.257Z,17.14
2023-06-04T16:02:27.605Z,17.26
2023-06-04T16:04:55.004Z,17.18
2023-06-04T16:07:22.940Z,17.18
2023-06-04T16:09:50.215Z,17.32
2023-06-04T16:12:17.832Z,17.38
2023-06-04T16:14:45.191Z,16.93
2023-06-04T16:17:12.801Z,17.08
2023-06-04T16:19:40.103Z,16.94
2023-06-04T16:22:07.775Z,16.85
2023-06-04T16:24:35.070Z,16.64
2023-06-04T16:27:02.765Z,16.69
2023-06-04T16:29:30.095Z,16.89
2023-06-04T16:31:57.704Z,16.74
2023-06-04T16:34:25.041Z,16.66
2023-06-04T16:36:52.722Z,16.69
2023-06-04T16:39:20.063Z,16.71
2023-06-04T16:41:48.146Z,16.55
2023-06-04T16:44:16.124Z,16.53
2023-06-04T16:46:43.767Z,16.49
2023-06-04T16:49:11.197Z,16.54
2023-06-04T16:51:38.856Z,16.58
2023-06-04T16:54:06.331Z,16.63
2023-06-04T16:56:34.588Z,16.80
2023-06-04T16:59:02.088Z,16.67
2023-06-04T17:01:29.813Z,16.54
2023-06-04T17:03:57.203Z,16.02
2023-06-04T17:06:26.389Z,16.30
2023-06-04T17:08:56.201Z,16.17
2023-06-04T17:11:23.852Z,16.24
2023-06-04T17:13:51.184Z,16.20
2023-06-04T17:16:18.926Z,16.44
2023-06-04T17:18:47.138Z,16.52
2023-06-04T17:21:18.187Z,16.66
2023-06-04T17:23:48.898Z,16.56
2023-06-04T17:26:17.176Z,16.64
2023-06-04T17:28:44.784Z,16.28
2023-06-04T17:31:18.217Z,16.52
2023-06-04T17:33:46.504Z,16.34
2023-06-04T17:36:14.550Z,16.39
2023-06-04T17:38:42.309Z,16.40
2023-06-04T17:41:11.134Z,16.41
2023-06-04T17:43:40.360Z,16.36
2023-06-04T17:46:08.239Z,16.03
2023-06-04T17:48:36.478Z,16.07
2023-06-04T17:51:07.446Z,16.17
2023-06-04T17:53:34.778Z,15.92
2023-06-04T17:56:02.666Z,15.57
2023-06-04T17:58:30.481Z,15.80
2023-06-04T18:00:58.515Z,15.95
2023-06-04T18:03:25.917Z,15.86
2023-06-04T18:05:53.588Z,15.63
2023-06-04T18:08:22.379Z,15.64
2023-06-04T18:10:50.108Z,15.71
2023-06-04T18:13:17.758Z,15.85
2023-06-04T18:15:45.713Z,15.88
2023-06-04T18:18:13.170Z,15.67
2023-06-04T18:20:42.078Z,15.87
2023-06-04T18:23:13.249Z,15.76
2023-06-04T18:25:41.065Z,15.62
2023-06-04T18:28:08.493Z,15.49
2023-06-04T18:30:36.486Z,15.23
2023-06-04T18:33:03.994Z,15.52
2023-06-04T18:35:33.415Z,15.19
2023-06-04T18:38:00.815Z,15.13
2023-06-04T18:40:28.404Z,15.11
2023-06-04T18:42:55.774Z,15.12
2023-06-04T18:45:23.375Z,15.06
2023-06-04T18:47:50.895Z,15.17
2023-06-04T18:50:18.720Z,15.18
2023-06-04T18:52:46.159Z,15.18
2023-06-04T18:55:13.795Z,14.91
2023-06-04T18:57:41.137Z,14.67
2023-06-04T19:00:09.834Z,14.48
2023-06-04T19:02:38.337Z,14.66
2023-06-04T19:05:09.864Z,14.60
2023-06-04T19:07:38.887Z,14.68
2023-06-04T19:10:07.028Z,14.76
2023-06-04T19:12:34.660Z,14.68
2023-06-04T19:15:02.469Z,14.75
2023-06-04T19:17:30.229Z,14.71
2023-06-04T19:19:58.006Z,14.57
2023-06-04T19:22:25.314Z,14.57
2023-06-04T19:24:52.906Z,14.35
2023-06-04T19:27:20.663Z,14.48
2023-06-04T19:29:48.310Z,14.44
2023-06-04T19:32:15.856Z,14.38
2023-06-04T19:34:43.566Z,14.45
2023-06-04T19:37:11.192Z,14.43
2023-06-04T19:39:38.796Z,14.53
2023-06-04T19:42:06.756Z,14.29
2023-06-04T19:44:34.437Z,14.24
2023-06-04T19:47:01.822Z,13.90
2023-06-04T19:49:29.587Z,13.69
2023-06-04T19:51:56.932Z,13.49
2023-06-04T19:54:24.873Z,13.47
2023-06-04T19:56:52.301Z,13.32
2023-06-04T19:59:20.482Z,13.15
2023-06-04T20:01:48.211Z,13.21
2023-06-04T20:04:16.084Z,13.11
2023-06-04T20:06:44.901Z,13.08
2023-06-04T20:09:15.113Z,13.01
2023-06-04T20:11:42.689Z,12.98
2023-06-04T20:14:11.216Z,12.93
2023-06-04T20:16:38.689Z,12.99
2023-06-04T20:19:06.439Z,12.78
2023-06-04T20:21:35.975Z,12.85
2023-06-04T20:24:04.923Z,12.82
2023-06-04T20:26:34.079Z,12.77
2023-06-04T20:29:01.978Z,12.64
2023-06-04T20:31:29.482Z,12.75
2023-06-04T20:33:57.617Z,12.72
2023-06-04T20:36:25.926Z,12.69
2023-06-04T20:38:53.732Z,12.66
2023-06-04T20:41:22.423Z,12.61
2023-06-04T20:43:55.106Z,12.50
2023-06-04T20:46:24.713Z,12.54
2023-06-04T20:48:52.488Z,12.51
2023-06-04T20:51:19.925Z,12.46
2023-06-04T20:53:48.422Z,12.42
2023-06-04T20:56:16.361Z,12.31
2023-06-04T20:58:44.098Z,12.36
2023-06-04T21:01:12.917Z,12.35
2023-06-04T21:03:41.360Z,12.33
2023-06-04T21:06:09.043Z,12.37
2023-06-04T21:08:36.903Z,12.37
2023-06-04T21:11:04.225Z,12.33
2023-06-04T21:13:32.271Z,12.21
2023-06-04T21:15:59.662Z,12.33
2023-06-04T21:18:28.962Z,12.31
2023-06-04T21:20:56.420Z,12.36
2023-06-04T21:23:24.145Z,12.39
2023-06-04T21:25:51.469Z,12.22
2023-06-04T21:28:19.110Z,12.25
2023-06-04T21:30:46.396Z,12.20
2023-06-04T21:33:14.145Z,12.08
2023-06-04T21:35:41.416Z,12.13
2023-06-04T21:38:08.971Z,12.07
2023-06-04T21:40:36.274Z,12.01
2023-06-04T21:43:03.879Z,12.05
2023-06-04T21:45:31.429Z,11.82
2023-06-04T21:48:00.408Z,12.03
2023-06-04T21:50:27.800Z,12.07
2023-06-04T21:52:55.711Z,12.02
2023-06-04T21:55:24.947Z,12.04
2023-06-04T21:57:52.705Z,12.00
2023-06-04T22:00:20.280Z,11.99
2023-06-04T22:02:47.998Z,11.83
2023-06-04T22:05:15.874Z,11.90
2023-06-04T22:07:43.523Z,11.88
2023-06-04T22:10:10.964Z,11.86
2023-06-04T22:12:38.594Z,11.82
2023-06-04T22:15:06.621Z,11.76
2023-06-04T22:17:34.264Z,11.75
2023-06-04T22:20:01.573Z,11.74
2023-06-04T22:22:29.318Z,11.72
2023-06-04T22:24:56.932Z,11.71
2023-06-04T22:27:24.504Z,11.71
2023-06-04T22:29:51.804Z,11.71
2023-06-04T22:32:19.412Z,11.68
2023-06-04T22:34:46.783Z,11.72
2023-06-04T22:37:14.407Z,11.72
2023-06-04T22:39:42.315Z,11.83
2023-06-04T22:42:10.258Z,11.72
2023-06-04T22:44:37.564Z,11.83
2023-06-04T22:47:05.853Z,11.91
2023-06-04T22:49:33.213Z,11.81
2023-06-04T22:52:01.031Z,11.75
2023-06-04T22:54:28.338Z,11.75
2023-06-04T22:56:56.048Z,11.80
2023-06-04T22:59:23.335Z,11.66
2023-06-04T23:01:50.919Z,11.58
2023-06-04T23:04:18.356Z,11.76
2023-06-04T23:06:46.301Z,11.71
2023-06-04T23:09:15.065Z,11.77
2023-06-04T23:11:44.017Z,11.87
2023-06-04T23:14:12.064Z,11.86
2023-06-04T23:16:39.772Z,11.75
2023-06-04T23:19:07.150Z,11.67
2023-06-04T23:21:34.696Z,11.49
2023-06-04T23:24:01.999Z,11.56
2023-06-04T23:26:29.595Z,11.34
2023-06-04T23:28:56.910Z,11.39
2023-06-04T23:31:24.530Z,11.33
2023-06-04T23:33:51.836Z,11.29
2023-06-04T23:36:19.535Z,11.11
2023-06-04T23:38:48.120Z,11.23
2023-06-04T23:41:16.644Z,11.23
2023-06-04T23:43:43.959Z,11.30
2023-06-04T23:46:11.625Z,11.37
2023-06-04T23:48:39.218Z,11.32
2023-06-04T23:51:07.477Z,11.20
2023-06-04T23:53:35.211Z,11.15
2023-06-04T23:56:02.866Z,11.11
2023-06-04T23:58:30.174Z,10.97
